Aérodrome :
LOGIN :

S'inscrire | Disclaimer

   EN    FR    IT 

 










Légende :    VFR   VFR Marginal   IFR   IFR Intensif   IFR Très Intensif
Visi : 
Plafond : 
>= 8 km
>= 3000ft
5 à 8 km
1000 à 3000 ft
1500m à 5 km
500 à 1000 ft
800 à 1500m
200 à 500 ft
< 800m
< 200 ft
Symboles :   Orages  Brouillard  Fortes neiges  Fortes précipitations  Vent > 20 kt
SIGMETs :   Divers  Orages  Givrage  Turbulence  Onde Orograph.  Cendres Volcan.







- Altitude de l'aérodrome : 1400 ft


LSME - Luzern Emmen

DERNIER METAR :
  • 272303Z AUTO 27010KT 240V300 9999NDV BKN045 BKN051 21/13 Q1019 RMK

METARs EXPIRÉS :
  • 272149Z AUTO 28012G24KT 250V330 9999NDV OVC110 22/15 Q1018 RMK
  • 272050Z AUTO 00000KT 9999NDV NCD 21/16 Q1017 RMK
  • 271950Z AUTO 00000KT 9999NDV BKN140 BKN160 23/17 Q1017 RMK

Prévision TAF périmée.
Pas de NOTAMs connus pour ce terrain.
1 SIGMET publié pour la FIR Switzerland (LSAS) :
 
Orages noyés dans la masse
LSAS SIGMET 8 VALID 272210/280100 LSZH
LSAS SWITZERLAND FIR/UIR EMBD TS OBS WI N4750 E00806 - N4548 E00921 - N4529 E00751 - N4724 E00633 - N4750 E00806 TOP FL370 MOV NE WKN=



MET'MAP, la Météo Aéronautique d'un coup d'oeil ! - Copyright ORBIFLY Décembre 2007 - Disclaimer

ORBIFLY MET'MAP TEAM :

Programmation & Développement : Alexandra Zaïnal
Conception & Développement : Baudouin d'Aumeries
Co-Programmation & Développement : Marc-Olivier Méhu
Soutien technique & logistique : Manuel Goepfert

Contact : metmap@orbifly.com




SOURCES & CREDITS :

   NOAA